aviador You're here:

KVNY Decoded Metar

VAN NUYS in CA, USA
Report Time2018-07-21 18:51:00
UTC Time2018-07-21 19:03:10
Flight Rules vfr VFR
WindVRB at 03 kt
Visibility9999 m
Phenomena:N/A
Clouds:N/A
Expected CloudBase > 6,000 ft AGL from Temp-Dew spread
CeilingNone
Temp30°C (ISA +17)
Dew Point15°C (40% RH)
Heat Index29.7°C
QNH1015 hPa
Density Alt2,867 ft
Elevation804 ft
Report Wrong Elevation
Raw Report
KVNY 211851Z VRB03KT 10SM CLR 30/15 A2998 RMK AO2 SLP143
T03000150=

Extra information for KVNY:More info

Metar Taf Metar & Taf Last 4 Metars F.Rules Stats Wind Profile Meteogram Temp Stats Airport Information Weather charts Add Link Nearby VenuesMetar ALERT Operation Metar Decoded Social comments

AIRNAV info for KVNY